Time;durP1;ratioP1;P1;durP2;ratioP2;P2;SDS_P1;SDS_P2;PMS_P1;PMS_P2;Temp;Humidity;BMP_temperature;BMP_pressure;BME280_temperature;BME280_humidity;BME280_pressure;Samples;Min_cycle;Max_cycle;Signal;HPM_P1;HPM_P2
2021/11/22 00:00:02;;;;;;;30.33;22.57;;;;;;;7.14;79.46;98451.09;2271702;78;20971;-80
2021/11/22 00:03:03;;;;;;;29.80;23.07;;;;;;;7.06;79.66;98449.20;2271969;78;21010;-78
2021/11/22 00:06:03;;;;;;;34.10;24.80;;;;;;;7.01;80.15;98447.39;2271863;78;20990;-79
2021/11/22 00:09:04;;;;;;;30.87;24.50;;;;;;;6.97;80.37;98449.47;2272197;78;21027;-79
2021/11/22 00:12:04;;;;;;;461.20;349.47;;;;;;;6.97;80.86;98453.36;2272090;78;21411;-80
2021/11/22 00:15:05;;;;;;;452.27;338.97;;;;;;;7.79;89.18;98453.98;2272498;78;20987;-81
2021/11/22 00:18:05;;;;;;;99.07;70.73;;;;;;;9.51;88.86;98449.83;2271793;78;20952;-81
2021/11/22 00:21:06;;;;;;;46.73;34.77;;;;;;;9.55;78.50;98446.86;2272474;78;21351;-80
2021/11/22 00:24:06;;;;;;;35.17;24.60;;;;;;;8.93;77.17;98449.20;2272085;78;20983;-80
2021/11/22 00:27:07;;;;;;;61.40;42.70;;;;;;;8.44;77.23;98459.38;2271773;78;20975;-81
2021/11/22 00:30:07;;;;;;;233.17;174.27;;;;;;;8.04;78.76;98461.78;2272492;78;20955;-80
2021/11/22 00:33:10;;;;;;;185.17;133.17;;;;;;;8.76;83.09;98474.16;2272806;78;21362;-79
2021/11/22 00:36:10;;;;;;;100.10;73.13;;;;;;;9.31;81.54;98469.59;2272296;78;21435;-80
2021/11/22 00:39:11;;;;;;;94.50;68.33;;;;;;;9.65;80.76;98470.84;2268621;78;21054;-80
2021/11/22 00:42:11;;;;;;;111.73;80.40;;;;;;;9.89;79.77;98475.41;2268509;78;21471;-79
2021/11/22 00:45:12;;;;;;;791.80;530.30;;;;;;;10.05;77.64;98475.97;2268191;78;20967;-82
2021/11/22 00:48:12;;;;;;;659.60;540.43;;;;;;;10.47;83.07;98483.30;2268992;78;21388;-79
2021/11/22 00:51:13;;;;;;;157.67;115.57;;;;;;;12.76;83.12;98474.66;2268201;78;20956;-79
2021/11/22 00:54:13;;;;;;;105.03;74.40;;;;;;;12.83;72.42;98483.38;2267946;78;21003;-80
2021/11/22 00:57:14;;;;;;;59.93;43.67;;;;;;;11.88;70.04;98488.67;2268555;78;20959;-78
2021/11/22 01:00:14;;;;;;;117.80;86.77;;;;;;;11.14;71.89;98490.61;2268687;78;21017;-80
2021/11/22 01:03:15;;;;;;;70.33;53.10;;;;;;;10.85;73.63;98499.18;2268812;78;20915;-79
2021/11/22 01:06:15;;;;;;;69.87;51.10;;;;;;;10.52;72.15;98495.95;2268258;78;21006;-78
2021/11/22 01:09:16;;;;;;;62.40;46.67;;;;;;;10.35;73.37;98495.36;2268346;78;20983;-79
2021/11/22 01:12:16;;;;;;;75.20;56.83;;;;;;;10.18;72.95;98498.68;2268458;78;20984;-80
2021/11/22 01:15:18;;;;;;;61.63;46.73;;;;;;;9.90;73.40;98505.83;2268105;78;20967;-79
2021/11/22 01:18:18;;;;;;;64.60;47.03;;;;;;;9.85;74.25;98500.58;2268195;78;21375;-80
2021/11/22 01:21:19;;;;;;;51.07;38.67;;;;;;;9.67;74.28;98498.22;2267747;78;20951;-80
2021/11/22 01:24:20;;;;;;;65.53;46.90;;;;;;;9.36;74.33;98509.59;2267240;78;21397;-80
2021/11/22 01:27:20;;;;;;;38.63;30.37;;;;;;;9.10;75.27;98504.52;2268511;78;21374;-80
2021/11/22 01:30:21;;;;;;;53.77;39.43;;;;;;;9.12;75.72;98503.67;2268001;78;20983;-80
2021/11/22 01:33:21;;;;;;;55.53;40.57;;;;;;;9.02;76.27;98507.45;2268380;78;20984;-80
2021/11/22 01:36:22;;;;;;;42.33;33.63;;;;;;;9.20;77.00;98502.46;2268145;78;20967;-82
2021/11/22 01:39:22;;;;;;;42.37;32.03;;;;;;;9.28;76.04;98502.13;2268105;78;21019;-80
2021/11/22 01:42:23;;;;;;;191.37;149.57;;;;;;;9.20;76.19;98503.33;2268368;78;20975;-83
2021/11/22 01:45:23;;;;;;;549.57;447.17;;;;;;;9.09;79.89;98498.86;2267660;78;21362;-83
2021/11/22 01:48:24;;;;;;;169.40;132.13;;;;;;;11.81;83.87;98493.45;2267858;78;21042;-83
2021/11/22 01:51:24;;;;;;;53.20;39.13;;;;;;;13.07;73.00;98492.49;2267635;78;20931;-80
2021/11/22 01:54:25;;;;;;;22.67;18.47;;;;;;;12.75;69.68;98492.56;2267086;78;20931;-80
2021/11/22 01:57:25;;;;;;;18.37;15.20;;;;;;;11.42;68.47;98506.84;2268244;78;21018;-80
2021/11/22 02:00:26;;;;;;;19.90;16.43;;;;;;;10.32;69.85;98510.56;2268310;78;21206;-81
2021/11/22 02:03:26;;;;;;;23.73;16.73;;;;;;;9.50;71.49;98513.22;2267935;78;20950;-81
2021/11/22 02:06:27;;;;;;;17.33;13.90;;;;;;;8.91;72.85;98512.09;2268376;78;21386;-81
2021/11/22 02:09:27;;;;;;;18.10;15.43;;;;;;;8.52;74.12;98516.71;2268132;78;20983;-81
2021/11/22 02:12:29;;;;;;;16.23;14.00;;;;;;;8.26;75.20;98529.28;2268255;78;21051;-80
2021/11/22 02:15:30;;;;;;;17.27;13.47;;;;;;;8.06;75.93;98530.69;2268368;78;21331;-81
2021/11/22 02:18:31;;;;;;;16.83;13.83;;;;;;;7.87;77.45;98528.20;2268548;78;20948;-80
2021/11/22 02:21:31;;;;;;;25.83;16.37;;;;;;;7.70;77.74;98534.36;2268901;78;21322;-80
2021/11/22 02:24:32;;;;;;;21.07;15.73;;;;;;;7.52;78.25;98534.90;2268407;78;20963;-82
2021/11/22 02:27:32;;;;;;;447.40;345.17;;;;;;;7.39;78.60;98534.63;2268929;78;20983;-82
2021/11/22 02:30:33;;;;;;;219.67;164.20;;;;;;;9.24;95.91;98531.59;2268526;78;20974;-80
2021/11/22 02:33:34;;;;;;;164.47;116.47;;;;;;;12.29;81.45;98520.55;2268423;78;20998;-81
2021/11/22 02:36:34;;;;;;;129.47;95.23;;;;;;;12.17;75.97;98520.11;2268006;78;21343;-82
2021/11/22 02:39:35;;;;;;;62.07;48.80;;;;;;;12.16;75.63;98528.83;2267775;78;21074;-81
2021/11/22 02:42:40;;;;;;;101.97;74.73;;;;;;;12.01;77.11;98530.09;2267775;78;20967;-82
2021/11/22 02:45:37;;;;;;;151.95;113.92;;;;;;;13.87;78.88;98523.14;2268036;78;20920;-84
2021/11/22 02:48:38;;;;;;;73.28;55.03;;;;;;;14.92;72.17;98526.27;2268735;78;20995;-84
2021/11/22 02:51:39;;;;;;;99.75;76.20;;;;;;;14.92;68.15;98536.34;2268203;78;20970;-80
2021/11/22 02:54:39;;;;;;;24.67;21.33;;;;;;;15.12;69.49;98534.81;2268634;78;21367;-79
2021/11/22 02:57:40;;;;;;;19.82;15.50;;;;;;;15.01;64.43;98541.95;2268511;78;20976;-80
2021/11/22 03:00:40;;;;;;;15.68;13.20;;;;;;;13.32;63.42;98540.48;2268000;78;20959;-80
2021/11/22 03:03:41;;;;;;;15.28;12.65;;;;;;;11.96;64.74;98556.25;2267858;78;20923;-81
2021/11/22 03:06:43;;;;;;;16.20;14.10;;;;;;;10.88;66.37;98568.83;2267303;78;21071;-82
2021/11/22 03:09:44;;;;;;;19.92;14.87;;;;;;;10.12;68.31;98563.83;2267616;78;21041;-80
2021/11/22 03:12:44;;;;;;;252.03;185.70;;;;;;;9.46;69.83;98567.45;2268249;78;20944;-82
2021/11/22 03:15:45;;;;;;;186.67;151.20;;;;;;;9.80;82.16;98562.64;2268411;78;21002;-82
2021/11/22 03:18:45;;;;;;;106.22;80.83;;;;;;;13.77;76.13;98554.24;2268387;78;20943;-81
2021/11/22 03:21:46;;;;;;;94.85;72.32;;;;;;;15.54;68.48;98550.96;2268341;78;21463;-81
2021/11/22 03:24:47;;;;;;;57.25;43.63;;;;;;;16.11;65.51;98549.80;2268619;78;20975;-80
2021/11/22 03:27:47;;;;;;;72.20;56.58;;;;;;;16.81;64.30;98550.89;2268424;78;21346;-81
2021/11/22 03:30:48;;;;;;;79.40;62.27;;;;;;;17.19;61.91;98544.91;2268329;78;20960;-80
2021/11/22 03:33:48;;;;;;;45.63;36.05;;;;;;;17.44;60.41;98548.41;2267993;78;20952;-81
2021/11/22 03:36:50;;;;;;;28.35;22.20;;;;;;;17.70;59.34;98547.89;2267558;78;20967;-81
2021/11/22 03:39:51;;;;;;;20.17;17.65;;;;;;;17.96;60.91;98553.92;2271153;78;21054;-81
2021/11/22 03:43:01;;;;;;;35.65;29.77;;;;;;;18.14;59.23;98557.47;2272333;78;21023;-83
2021/11/22 03:45:54;;;;;;;39.27;30.02;;;;;;;18.19;58.52;98559.55;2270724;78;20939;-82
2021/11/22 03:48:55;;;;;;;218.60;170.50;;;;;;;17.98;56.59;98550.80;2273169;78;21002;-82
2021/11/22 03:51:55;;;;;;;127.05;98.45;;;;;;;18.33;57.24;98555.30;2273226;78;20995;-83
2021/11/22 03:54:56;;;;;;;134.63;108.97;;;;;;;18.67;53.47;98559.33;2273379;78;20967;-83
2021/11/22 03:57:56;;;;;;;120.70;95.90;;;;;;;18.06;53.93;98562.05;2273068;78;21397;-84
2021/11/22 04:00:57;;;;;;;105.87;84.35;;;;;;;17.59;55.01;98575.80;2272277;78;20943;-83
2021/11/22 04:03:57;;;;;;;95.22;71.55;;;;;;;17.34;56.40;98566.61;2273093;78;20955;-83
2021/11/22 04:07:00;;;;;;;63.28;50.55;;;;;;;18.18;55.72;98572.34;2272699;78;21354;-82
2021/11/22 04:10:00;;;;;;;43.10;35.45;;;;;;;18.86;54.80;98571.17;2272952;78;20994;-81
2021/11/22 04:13:01;;;;;;;45.08;36.53;;;;;;;19.00;54.20;98584.05;2273215;78;21006;-80
2021/11/22 04:16:02;;;;;;;16.67;14.95;;;;;;;19.21;52.63;98587.92;2272993;78;21014;-81
2021/11/22 04:19:02;;;;;;;13.25;11.83;;;;;;;18.91;49.90;98590.44;2273365;78;21434;-78
2021/11/22 04:22:03;;;;;;;12.47;11.18;;;;;;;16.14;50.00;98603.73;2273525;78;20920;-82
2021/11/22 04:25:03;;;;;;;13.83;12.28;;;;;;;13.85;53.54;98611.04;2273983;78;20974;-82
2021/11/22 04:28:05;;;;;;;43.00;33.65;;;;;;;12.42;56.26;98626.98;2272535;78;21409;-82
2021/11/22 04:31:06;;;;;;;28.98;21.55;;;;;;;13.18;65.36;98630.95;2272659;78;20963;-82
2021/11/22 04:34:06;;;;;;;15.55;13.85;;;;;;;15.11;63.73;98607.99;2271983;78;20967;-82
2021/11/22 04:37:07;;;;;;;26.30;20.80;;;;;;;16.28;61.08;98601.77;2271739;78;20979;-81
2021/11/22 04:40:08;;;;;;;19.42;14.65;;;;;;;16.56;58.04;98578.53;2268229;78;21015;-79
2021/11/22 04:43:08;;;;;;;16.70;13.83;;;;;;;16.73;58.31;98588.83;2268387;78;20935;-80
2021/11/22 04:46:09;;;;;;;21.00;16.30;;;;;;;17.29;55.20;98612.86;2267456;78;20967;-78
2021/11/22 04:49:09;;;;;;;17.77;15.63;;;;;;;16.42;54.77;98616.91;2267128;78;20976;-80
2021/11/22 04:52:10;;;;;;;20.02;16.42;;;;;;;15.44;55.13;98625.61;2267699;78;21821;-80
2021/11/22 04:55:10;;;;;;;19.85;16.15;;;;;;;15.21;55.54;98633.30;2266985;78;20903;-81
2021/11/22 04:58:11;;;;;;;19.90;17.30;;;;;;;14.91;57.44;98633.59;2267637;78;21032;-79
2021/11/22 05:01:12;;;;;;;19.65;16.48;;;;;;;13.71;55.57;98642.58;2267852;78;20955;-81
2021/11/22 05:04:12;;;;;;;19.65;16.62;;;;;;;12.35;57.54;98644.43;2267894;78;20956;-79
2021/11/22 05:07:13;;;;;;;23.02;18.30;;;;;;;11.31;59.84;98655.31;2267998;78;20990;-79
2021/11/22 05:10:13;;;;;;;22.40;18.85;;;;;;;10.46;61.77;98660.73;2267302;78;20983;-83
2021/11/22 05:13:14;;;;;;;28.70;18.57;;;;;;;9.84;63.60;98663.48;2268542;78;20986;-80
2021/11/22 05:16:15;;;;;;;31.20;21.33;;;;;;;10.92;66.35;98660.69;2268444;78;21022;-81
2021/11/22 05:19:15;;;;;;;31.90;21.13;;;;;;;10.47;64.71;98652.05;2267098;78;20940;-80
2021/11/22 05:22:21;;;;;;;29.40;20.83;;;;;;;10.34;67.63;98651.45;2266246;78;21310;-81
2021/11/22 05:25:21;;;;;;;35.73;22.33;;;;;;;10.55;69.05;98653.42;2266524;78;20935;-81
2021/11/22 05:28:22;;;;;;;29.63;20.50;;;;;;;11.44;65.79;98656.70;2265618;78;21712;-81
2021/11/22 05:31:23;;;;;;;24.93;17.40;;;;;;;10.99;67.23;98658.56;2266504;78;20960;-81
2021/11/22 05:34:24;;;;;;;30.57;22.00;;;;;;;11.96;68.30;98668.73;2266380;78;21381;-81
2021/11/22 05:37:27;;;;;;;34.47;21.80;;;;;;;12.82;66.97;98675.45;2266904;78;20924;-79
2021/11/22 05:40:27;;;;;;;32.00;23.42;;;;;;;14.13;65.21;98672.16;2266953;78;21035;-81
2021/11/22 05:43:28;;;;;;;28.60;21.27;;;;;;;14.94;61.53;98675.62;2267885;78;21347;-81
2021/11/22 05:46:28;;;;;;;34.27;23.30;;;;;;;15.14;60.59;98672.38;2268138;78;21143;-82
2021/11/22 05:49:32;;;;;;;30.85;20.52;;;;;;;15.40;59.89;98677.38;2267391;78;21080;-80
2021/11/22 05:52:31;;;;;;;34.33;21.12;;;;;;;14.39;57.18;98678.58;2266656;78;20979;-80
2021/11/22 05:55:37;;;;;;;32.95;22.95;;;;;;;12.73;58.02;98683.74;2266720;78;20915;-81
2021/11/22 05:58:37;;;;;;;32.15;22.93;;;;;;;11.46;60.20;98691.99;2266529;78;21001;-81
2021/11/22 06:01:38;;;;;;;35.00;22.87;;;;;;;10.43;62.37;98694.62;2267211;78;21336;-83
2021/11/22 06:04:38;;;;;;;34.83;23.43;;;;;;;9.74;64.06;98701.60;2267808;78;21038;-82
2021/11/22 06:07:39;;;;;;;34.67;23.73;;;;;;;9.31;65.59;98704.45;2268610;78;21387;-81
2021/11/22 06:10:39;;;;;;;38.00;25.27;;;;;;;8.98;66.96;98707.42;2267197;78;21078;-84
2021/11/22 06:16:43;;;;;;;34.60;24.77;;;;;;;8.43;69.00;98725.53;2168557;82;21007;-83
2021/11/22 06:19:43;;;;;;;39.27;27.27;;;;;;;8.24;69.76;98732.08;2108639;84;21520;-81
2021/11/22 06:22:44;;;;;;;41.07;27.13;;;;;;;8.08;70.93;98731.33;2107155;84;21087;-82
2021/11/22 06:25:44;;;;;;;41.60;27.83;;;;;;;7.90;71.54;98732.27;2067028;86;21069;-82
2021/11/22 06:28:45;;;;;;;40.47;27.93;;;;;;;7.74;72.15;98735.35;2067536;86;20971;-82
2021/11/22 06:31:45;;;;;;;44.83;28.40;;;;;;;7.60;73.02;98738.53;2067343;86;21124;-82
2021/11/22 06:34:46;;;;;;;39.83;26.83;;;;;;;7.43;73.43;98745.08;2067327;86;21038;-83
2021/11/22 06:37:46;;;;;;;42.67;27.00;;;;;;;7.34;74.10;98747.05;2067572;86;21050;-84
2021/11/22 06:40:47;;;;;;;39.27;27.70;;;;;;;7.23;74.78;98758.89;2067370;85;21051;-83
2021/11/22 06:43:48;;;;;;;40.70;27.33;;;;;;;7.09;75.50;98764.60;2066067;86;21006;-82
2021/11/22 06:46:49;;;;;;;39.77;25.77;;;;;;;6.98;75.78;98773.42;2066270;86;21051;-81
2021/11/22 06:49:49;;;;;;;50.30;31.23;;;;;;;6.87;76.95;98768.36;2065412;86;21458;-81
2021/11/22 06:52:50;;;;;;;44.83;29.03;;;;;;;6.87;76.95;98768.36;2066570;86;20979;-84
2021/11/22 06:55:51;;;;;;;53.07;30.50;;;;;;;6.86;77.04;98781.75;2066924;86;21437;-83
2021/11/22 06:58:51;;;;;;;52.30;30.63;;;;;;;6.85;77.27;98789.07;2066007;86;21067;-81
2021/11/22 07:01:52;;;;;;;46.53;30.20;;;;;;;6.85;77.51;98797.27;2066859;86;20963;-85
2021/11/22 07:04:52;;;;;;;46.50;30.53;;;;;;;6.85;77.73;98794.27;2066526;86;21417;-82
2021/11/22 07:07:56;;;;;;;44.90;28.67;;;;;;;6.83;77.99;98798.53;2066369;86;21417;-83
2021/11/22 07:10:56;;;;;;;45.20;28.30;;;;;;;6.82;79.18;98810.17;2066863;86;21461;-83
2021/11/22 07:13:57;;;;;;;42.27;26.90;;;;;;;6.79;78.98;98814.86;2145645;82;21017;-83
2021/11/22 07:16:58;;;;;;;40.03;26.33;;;;;;;6.73;79.11;98812.52;2184536;81;21004;-83
2021/11/22 07:19:58;;;;;;;40.10;25.63;;;;;;;6.76;78.91;98816.08;2219174;80;21341;-84
2021/11/22 07:22:59;;;;;;;34.77;23.73;;;;;;;6.78;79.18;98818.70;2219495;80;21010;-87
2021/11/22 07:25:59;;;;;;;37.23;24.03;;;;;;;6.78;79.04;98815.70;2267547;78;21010;-83
2021/11/22 07:29:00;;;;;;;35.77;23.30;;;;;;;6.78;79.26;98826.08;2267763;78;21026;-84
2021/11/22 07:32:01;;;;;;;36.33;22.83;;;;;;;6.77;79.18;98825.61;2268207;78;20978;-81
2021/11/22 07:35:01;;;;;;;62.50;37.87;;;;;;;6.75;79.42;98832.48;2268077;78;20979;-83
2021/11/22 07:38:03;;;;;;;41.67;27.50;;;;;;;6.75;79.74;98835.49;2268761;78;21395;-82
2021/11/22 07:41:07;;;;;;;34.97;23.47;;;;;;;6.73;79.73;98835.45;2267449;78;21404;-83
2021/11/22 07:44:11;;;;;;;38.83;25.00;;;;;;;6.74;80.05;98841.09;2266863;78;21361;-82
2021/11/22 07:47:12;;;;;;;39.20;25.60;;;;;;;6.64;80.18;98833.91;2266699;78;20971;-83
2021/11/22 07:50:12;;;;;;;36.43;23.17;;;;;;;6.58;81.05;98845.41;2267071;78;21361;-82
2021/11/22 07:53:13;;;;;;;46.27;22.97;;;;;;;6.50;81.08;98846.91;2267518;78;20975;-81
2021/11/22 07:56:14;;;;;;;40.00;24.73;;;;;;;6.44;81.09;98844.16;2267043;78;20936;-82
2021/11/22 07:59:15;;;;;;;41.50;26.10;;;;;;;6.43;81.49;98857.53;2267602;78;20944;-84
2021/11/22 08:02:15;;;;;;;39.80;25.20;;;;;;;6.34;81.64;98861.16;2267652;78;21019;-82
2021/11/22 08:05:18;;;;;;;46.17;26.20;;;;;;;6.30;81.90;98860.19;2234993;78;20899;-81
2021/11/22 08:08:21;;;;;;;42.97;25.47;;;;;;;6.31;82.18;98869.73;2266548;78;20943;-83
2021/11/22 08:14:27;;;;;;;42.57;25.77;;;;;;;6.34;81.91;98878.02;2234259;78;20966;-81
2021/11/22 08:17:28;;;;;;;43.40;26.10;;;;;;;6.33;82.38;98889.22;2267355;78;21324;-83
2021/11/22 08:20:29;;;;;;;45.20;24.13;;;;;;;6.34;82.36;98900.93;2266665;78;20987;-81
2021/11/22 08:23:29;;;;;;;49.87;28.60;;;;;;;6.31;82.52;98906.02;2266125;78;20962;-82
2021/11/22 08:26:30;;;;;;;52.30;31.10;;;;;;;6.31;82.54;98906.02;2267409;78;21339;-81
2021/11/22 08:29:30;;;;;;;43.27;26.97;;;;;;;6.36;82.59;98910.92;2267994;78;20974;-83
2021/11/22 08:32:31;;;;;;;47.53;28.07;;;;;;;6.42;82.63;98911.94;2268045;78;20928;-81
2021/11/22 08:35:31;;;;;;;43.33;26.20;;;;;;;6.47;82.95;98919.02;2267935;78;20967;-83
2021/11/22 08:38:32;;;;;;;42.03;25.17;;;;;;;6.47;82.48;98915.12;2267328;78;21346;-82
2021/11/22 08:41:33;;;;;;;43.00;25.80;;;;;;;6.53;82.25;98913.13;2267032;78;21070;-83
2021/11/22 08:44:33;;;;;;;42.43;27.00;;;;;;;6.61;82.22;98918.99;2267868;78;20986;-83
2021/11/22 08:47:34;;;;;;;43.80;26.93;;;;;;;6.67;82.35;98924.77;2268252;78;21335;-84
2021/11/22 08:50:34;;;;;;;42.03;26.13;;;;;;;6.69;82.52;98934.78;2267452;78;21007;-84
2021/11/22 08:56:37;;;;;;;41.10;25.43;;;;;;;6.73;82.23;98938.34;2236946;78;21002;-83
2021/11/22 08:59:38;;;;;;;38.63;25.27;;;;;;;6.73;82.36;98933.15;2267460;78;21442;-81
2021/11/22 09:02:39;;;;;;;49.50;26.90;;;;;;;6.77;81.95;98932.40;2268860;78;21029;-83
2021/11/22 09:05:39;;;;;;;46.63;28.60;;;;;;;6.85;81.58;98942.58;2268017;78;20963;-83
2021/11/22 09:08:40;;;;;;;42.60;25.50;;;;;;;6.89;81.47;98954.80;2267767;78;20987;-82
2021/11/22 09:11:40;;;;;;;53.83;32.30;;;;;;;6.95;81.29;98945.92;2268012;78;21034;-85
2021/11/22 09:14:44;;;;;;;41.20;24.90;;;;;;;7.01;81.14;98948.27;2267546;78;21414;-83
2021/11/22 09:17:44;;;;;;;39.07;26.17;;;;;;;7.06;81.31;98943.61;2266957;78;20912;-83
2021/11/22 09:20:48;;;;;;;47.20;28.97;;;;;;;7.03;81.16;98951.78;2267371;78;20935;-82
2021/11/22 09:23:48;;;;;;;43.80;27.50;;;;;;;6.94;81.24;98946.75;2266802;78;21279;-83
2021/11/22 09:26:49;;;;;;;47.43;27.63;;;;;;;6.90;80.81;98952.66;2267866;78;21007;-83
2021/11/22 09:32:52;;;;;;;37.93;23.07;;;;;;;6.83;81.06;98959.39;2234866;78;20954;-83
2021/11/22 09:35:53;;;;;;;37.70;23.80;;;;;;;6.82;81.47;98956.34;2266877;78;20964;-80
2021/11/22 09:38:53;;;;;;;39.23;23.80;;;;;;;6.84;81.34;98962.45;2265809;78;21308;-83
2021/11/22 09:41:56;;;;;;;36.70;22.30;;;;;;;6.85;81.19;98955.55;2233799;78;20951;-82
2021/11/22 09:44:56;;;;;;;34.33;23.17;;;;;;;6.86;80.82;98953.00;2266939;78;20944;-82
2021/11/22 09:47:57;;;;;;;32.93;20.97;;;;;;;6.86;80.76;98943.91;2266859;78;21413;-81
2021/11/22 09:50:57;;;;;;;32.50;21.90;;;;;;;6.89;80.02;98950.91;2267445;78;20994;-82
2021/11/22 09:53:59;;;;;;;37.23;22.17;;;;;;;6.90;80.29;98954.84;2267455;78;21386;-81
2021/11/22 09:57:00;;;;;;;28.40;18.87;;;;;;;6.93;79.72;98947.14;2265860;78;20955;-82
2021/11/22 10:00:00;;;;;;;31.10;21.30;;;;;;;7.09;79.76;98952.78;2265834;78;21363;-81
2021/11/22 10:03:01;;;;;;;28.00;17.70;;;;;;;7.15;79.47;98962.03;2267449;78;20982;-82
2021/11/22 10:06:01;;;;;;;27.37;17.83;;;;;;;7.16;78.32;98962.50;2266717;78;21039;-79
2021/11/22 10:09:02;;;;;;;25.43;17.43;;;;;;;7.10;78.53;98955.42;2267672;78;20967;-81
2021/11/22 10:12:02;;;;;;;23.40;16.73;;;;;;;7.15;78.95;98956.84;2267276;78;21030;-81
2021/11/22 10:15:05;;;;;;;26.93;15.90;;;;;;;7.21;78.59;98960.91;2236087;78;20943;-82
2021/11/22 10:18:05;;;;;;;23.23;15.37;;;;;;;7.17;77.47;98961.66;2267327;78;21351;-81
2021/11/22 10:21:08;;;;;;;22.13;14.60;;;;;;;7.13;77.31;98959.81;2236932;78;21018;-82
2021/11/22 10:24:08;;;;;;;26.13;15.53;;;;;;;7.11;77.43;98958.89;2267932;78;21358;-81
2021/11/22 10:27:11;;;;;;;25.30;15.63;;;;;;;7.06;77.70;98958.77;2236215;78;20979;-81
2021/11/22 10:30:11;;;;;;;21.33;15.27;;;;;;;7.04;77.66;98956.55;2268921;78;21733;-79
2021/11/22 10:33:12;;;;;;;21.03;14.33;;;;;;;7.05;77.93;98957.43;2269050;78;20943;-80
2021/11/22 10:36:12;;;;;;;22.63;16.00;;;;;;;7.07;77.93;98962.25;2266410;78;20999;-78
2021/11/22 10:39:13;;;;;;;23.60;15.33;;;;;;;7.07;77.84;98967.44;2267876;78;20928;-81
2021/11/22 10:42:13;;;;;;;21.23;14.77;;;;;;;7.11;77.67;98962.79;2272114;78;21336;-78
2021/11/22 10:45:14;;;;;;;20.87;14.90;;;;;;;7.13;77.69;98968.91;2272733;78;20979;-81
2021/11/22 10:48:20;;;;;;;19.53;15.33;;;;;;;7.16;77.58;98965.09;2273768;78;21022;-80
2021/11/22 10:51:21;;;;;;;20.23;15.20;;;;;;;7.16;77.81;98977.66;2272332;78;21371;-79
2021/11/22 10:54:19;;;;;;;19.50;13.50;;;;;;;7.16;77.93;98979.37;2271724;78;20995;-81
2021/11/22 10:57:20;;;;;;;21.60;13.23;;;;;;;7.16;77.78;98980.67;2271884;78;20970;-81
2021/11/22 11:00:25;;;;;;;18.20;12.90;;;;;;;7.13;77.53;98990.97;2243860;78;20950;-79
2021/11/22 11:03:26;;;;;;;16.47;12.43;;;;;;;7.04;76.63;98994.19;2270762;78;20982;-79
2021/11/22 11:06:27;;;;;;;18.90;13.53;;;;;;;6.99;77.12;98991.88;2271829;78;20974;-83
2021/11/22 11:09:27;;;;;;;15.87;12.13;;;;;;;6.99;77.38;98987.98;2272134;78;20935;-83
2021/11/22 11:12:28;;;;;;;17.30;11.37;;;;;;;7.06;77.60;98985.14;2271528;78;20990;-83
2021/11/22 11:15:29;;;;;;;14.67;11.37;;;;;;;7.08;77.66;98990.84;2271978;78;21338;-82
2021/11/22 11:18:32;;;;;;;18.30;11.10;;;;;;;7.14;77.18;98980.63;2272190;78;21417;-82
2021/11/22 11:21:32;;;;;;;14.17;10.27;;;;;;;7.19;76.85;98988.13;2271008;78;20986;-79
2021/11/22 11:24:32;;;;;;;17.53;10.77;;;;;;;7.17;76.39;98987.63;2271804;78;20908;-81
2021/11/22 11:27:33;;;;;;;18.97;10.93;;;;;;;7.15;76.49;98991.47;2271028;78;21014;-79
2021/11/22 11:30:33;;;;;;;18.50;11.53;;;;;;;7.11;76.62;98992.22;2271913;78;21319;-82
2021/11/22 11:33:34;;;;;;;14.40;11.20;;;;;;;7.11;77.22;98992.22;2272124;78;20954;-82
2021/11/22 11:36:35;;;;;;;20.90;14.63;;;;;;;7.18;76.78;98990.67;2272415;78;21465;-83
2021/11/22 11:42:37;;;;;;;22.77;15.43;;;;;;;7.26;75.65;98996.95;2236322;78;21010;-82
2021/11/22 11:45:38;;;;;;;26.67;14.50;;;;;;;7.26;75.65;98996.95;2266857;78;20912;-81
2021/11/22 11:48:39;;;;;;;20.67;13.77;;;;;;;7.26;76.60;98997.84;2267962;78;20939;-81
2021/11/22 11:51:40;;;;;;;20.43;13.03;;;;;;;7.29;76.06;99000.52;2267726;78;20979;-80
2021/11/22 11:54:41;;;;;;;23.50;15.10;;;;;;;7.29;75.20;99000.52;2267720;78;20943;-79
2021/11/22 11:57:41;;;;;;;26.97;16.43;;;;;;;7.28;75.65;98996.58;2267384;78;20987;-82
2021/11/22 12:00:42;;;;;;;24.47;15.17;;;;;;;7.28;76.03;99012.16;2268570;78;20951;-80
2021/11/22 12:03:42;;;;;;;24.87;16.03;;;;;;;7.30;76.26;99005.29;2269126;78;20943;-83
2021/11/22 12:06:46;;;;;;;18.43;12.50;;;;;;;7.31;76.22;99008.34;2268852;78;21007;-81
2021/11/22 12:09:46;;;;;;;21.12;14.70;;;;;;;7.26;76.24;99016.43;2268358;78;20970;-82
2021/11/22 12:12:51;;;;;;;22.87;14.50;;;;;;;7.27;76.50;99020.36;2267217;78;21021;-80
2021/11/22 12:15:51;;;;;;;20.32;13.53;;;;;;;7.28;76.37;99023.42;2267387;78;20923;-81
2021/11/22 12:18:52;;;;;;;19.57;13.00;;;;;;;7.29;76.30;99020.41;2267063;78;21007;-82
2021/11/22 12:21:53;;;;;;;14.80;10.33;;;;;;;7.19;76.04;99025.77;2267043;78;20916;-81
2021/11/22 12:24:53;;;;;;;16.33;9.33;;;;;;;7.14;76.49;99036.86;2266512;78;20983;-83
2021/11/22 12:27:54;;;;;;;15.53;10.47;;;;;;;7.01;76.26;99044.30;2266773;78;21799;-82
2021/11/22 12:30:54;;;;;;;12.53;10.33;;;;;;;6.92;76.38;99046.59;2267158;78;20991;-81
2021/11/22 12:33:55;;;;;;;14.40;10.93;;;;;;;6.83;76.33;99050.63;2267530;78;20908;-83
2021/11/22 12:36:55;;;;;;;13.23;9.67;;;;;;;6.80;76.15;99052.71;2266952;78;21187;-80
2021/11/22 12:39:56;;;;;;;12.37;8.97;;;;;;;6.83;76.51;99054.52;2267241;78;20954;-82
2021/11/22 12:42:56;;;;;;;13.20;9.53;;;;;;;6.87;76.30;99049.47;2271685;78;21001;-82
2021/11/22 12:45:57;;;;;;;11.80;9.23;;;;;;;6.92;76.03;99053.08;2272227;78;20975;-81
2021/11/22 12:48:59;;;;;;;12.57;9.57;;;;;;;6.91;76.10;99043.53;2272681;78;21003;-81
2021/11/22 12:52:00;;;;;;;12.90;9.90;;;;;;;6.84;76.23;99055.86;2271215;78;20943;-82
2021/11/22 12:55:01;;;;;;;10.77;9.20;;;;;;;6.84;76.42;99054.98;2271310;78;20963;-82
2021/11/22 12:58:01;;;;;;;10.53;8.77;;;;;;;6.85;75.99;99052.84;2271975;78;20951;-80
2021/11/22 13:01:02;;;;;;;11.77;9.30;;;;;;;6.84;76.05;99045.48;2271886;78;21011;-82
2021/11/22 13:04:02;;;;;;;13.63;9.23;;;;;;;6.91;76.01;99046.55;2271371;78;21303;-81
2021/11/22 13:07:03;;;;;;;11.60;8.50;;;;;;;6.99;76.17;99051.16;2272592;78;20975;-82
2021/11/22 13:10:03;;;;;;;12.23;9.20;;;;;;;7.04;75.94;99053.88;2271870;78;20951;-82
2021/11/22 13:13:17;;;;;;;15.77;10.67;;;;;;;7.06;75.71;99050.91;2272378;78;20975;-82
2021/11/22 13:16:11;;;;;;;11.83;9.00;;;;;;;7.01;75.55;99057.27;2270361;78;21007;-82
2021/11/22 13:19:10;;;;;;;16.30;9.43;;;;;;;6.90;75.30;99065.13;2272154;78;21007;-83
2021/11/22 13:22:10;;;;;;;13.90;9.30;;;;;;;6.80;75.76;99068.28;2271819;78;20959;-83
2021/11/22 13:25:11;;;;;;;15.20;9.30;;;;;;;6.76;76.19;99072.91;2271914;78;20974;-81
2021/11/22 13:28:11;;;;;;;11.37;9.47;;;;;;;6.66;76.15;99073.47;2271939;78;20994;-82
2021/11/22 13:31:12;;;;;;;17.67;10.37;;;;;;;6.56;76.64;99070.13;2272949;78;20954;-81
2021/11/22 13:34:14;;;;;;;11.00;8.70;;;;;;;6.49;76.78;99075.95;2272084;78;20904;-81
2021/11/22 13:37:15;;;;;;;11.53;9.93;;;;;;;6.42;76.84;99080.48;2271210;78;20939;-81
2021/11/22 13:40:15;;;;;;;13.97;9.20;;;;;;;6.37;77.04;99081.63;2271162;78;20987;-80
2021/11/22 13:43:16;;;;;;;10.50;8.43;;;;;;;6.31;77.21;99084.91;2270506;78;21031;-80
2021/11/22 13:46:17;;;;;;;11.97;9.27;;;;;;;6.29;77.02;99089.58;2271528;78;20931;-80
2021/11/22 13:49:17;;;;;;;14.50;10.17;;;;;;;6.23;77.27;99091.55;2271022;78;20947;-79
2021/11/22 13:52:18;;;;;;;52.07;14.73;;;;;;;6.21;77.34;99091.92;2271988;78;21026;-79
2021/11/22 13:55:18;;;;;;;13.63;9.50;;;;;;;6.21;77.76;99094.51;2271428;78;21010;-81
2021/11/22 13:58:19;;;;;;;15.77;10.97;;;;;;;6.21;77.50;99090.62;2270719;78;21386;-81
2021/11/22 14:01:19;;;;;;;12.50;8.60;;;;;;;6.20;77.68;99099.64;2270742;78;20931;-82
2021/11/22 14:04:20;;;;;;;15.97;10.00;;;;;;;6.17;77.70;99095.66;2271608;78;20935;-81
2021/11/22 14:07:21;;;;;;;13.97;10.20;;;;;;;6.17;78.03;99103.02;2270403;78;21443;-80
2021/11/22 14:10:21;;;;;;;16.03;9.97;;;;;;;6.18;78.33;99109.96;2270138;78;20916;-81